PWSweather.com
Personal Weather Stations
Station Observations
AVONCOLORA
Wildridge Neighborhood, Avon, CO 81620

Wildridge NeighborhoodAvon, CO 81620

Lat: 39.659223, Lon: -106.549324

Elevation: 8150

Station Type: Davis Vantage View 2012

http://InternetVail.Com

Latest ConditionsUpdated 4:20:01 PM MDT Friday, Oct 18, 2019
Currently Today's Max Today's Min Today's Average
Temperature 61.1°F16.2°C 65.7°F18.7°C 58.7°F14.8°C 62.0°F16.7°C
Dew Point 60.0°F15.6°C 60.0°F15.6°C 51.5°F10.8°C 54.9°F12.7°C
Winds 6.0 mph SSW9.7 kmh SSW 7.0 mph -11.3 kmh - - 0.6 mph 1.0 kmh
Wind Gusts 11.0 mph17.7 kmh 11.0 mph17.7 kmh - -
Humidity 96% 97% 66% 78%
Pressure 29.73 in1006.8 mb 29.90 in1012.5 mb 29.73 in1006.8 mb -
Hour Temp Dew Point Humidity Winds Wind Gusts Pressure Precip Precip Rate Daily Precip Total
04:20 PM 61.1°F16.2°C 60.0°F15.6°C 96% 6.0 mph SSW9.7 kmh SSW 11.0 mph17.7 kmh 29.73 in1006.8 mb 0.30 in7.6 mm 0.00 in0.0 mm 0.34 in8.6 mm
04:15 PM 60.7°F15.9°C 59.8°F15.4°C 97% 4.0 mph S6.4 kmh S 11.0 mph17.7 kmh 29.73 in1006.8 mb 0.30 in7.6 mm 0.00 in0.0 mm 0.34 in8.6 mm
04:10 PM 60.1°F15.6°C 59.0°F15.0°C 96% 3.0 mph S4.8 kmh S 11.0 mph17.7 kmh 29.74 in1007.1 mb 0.30 in7.6 mm 0.12 in3.0 mm 0.34 in8.6 mm
04:05 PM 60.0°F15.6°C 58.9°F14.9°C 96% 1.0 mph SSW1.6 kmh SSW 11.0 mph17.7 kmh 29.74 in1007.1 mb 0.29 in7.4 mm 0.00 in0.0 mm 0.33 in8.4 mm
04:00 PM 59.8°F15.4°C 58.7°F14.8°C 96% Calm Calm 11.0 mph17.7 kmh 29.74 in1007.1 mb 0.29 in7.4 mm 0.01 in0.3 mm 0.33 in8.4 mm
03:55 PM 59.6°F15.3°C 58.2°F14.6°C 95% Calm Calm 11.0 mph17.7 kmh 29.75 in1007.5 mb 0.28 in7.1 mm 0.00 in0.0 mm 0.32 in8.1 mm
03:50 PM 59.4°F15.2°C 58.0°F14.4°C 95% Calm Calm 11.0 mph17.7 kmh 29.76 in1007.8 mb 0.28 in7.1 mm 0.00 in0.0 mm 0.32 in8.1 mm
03:45 PM 59.2°F15.1°C 57.8°F14.3°C 95% 3.0 mph SSW4.8 kmh SSW 11.0 mph17.7 kmh 29.76 in1007.8 mb 0.28 in7.1 mm 0.12 in3.0 mm 0.32 in8.1 mm
03:40 PM 59.1°F15.1°C 57.7°F14.3°C 95% Calm Calm 11.0 mph17.7 kmh 29.76 in1007.8 mb 0.27 in6.9 mm 0.00 in0.0 mm 0.31 in7.9 mm
03:35 PM 59.1°F15.1°C 57.7°F14.3°C 95% 2.0 mph SSW3.2 kmh SSW 11.0 mph17.7 kmh 29.76 in1007.8 mb 0.27 in6.9 mm 0.12 in3.0 mm 0.31 in7.9 mm
03:30 PM 59.0°F15.0°C 57.3°F14.1°C 94% Calm Calm 11.0 mph17.7 kmh 29.76 in1007.8 mb 0.26 in6.6 mm 0.00 in0.0 mm 0.30 in7.6 mm
03:25 PM 59.1°F15.1°C 57.4°F14.1°C 94% Calm Calm 11.0 mph17.7 kmh 29.76 in1007.8 mb 0.26 in6.6 mm 0.12 in3.0 mm 0.30 in7.6 mm
03:20 PM 59.1°F15.1°C 57.4°F14.1°C 94% 3.0 mph SW4.8 kmh SW 11.0 mph17.7 kmh 29.77 in1008.1 mb 0.25 in6.4 mm 0.12 in3.0 mm 0.29 in7.4 mm
03:15 PM 59.2°F15.1°C 57.5°F14.2°C 94% Calm Calm 11.0 mph17.7 kmh 29.77 in1008.1 mb 0.24 in6.1 mm 0.12 in3.0 mm 0.28 in7.1 mm
03:10 PM 59.2°F15.1°C 57.5°F14.2°C 94% 4.0 mph S6.4 kmh S 11.0 mph17.7 kmh 29.77 in1008.1 mb 0.23 in5.8 mm 0.12 in3.0 mm 0.27 in6.9 mm
03:05 PM 59.3°F15.2°C 57.6°F14.2°C 94% Calm Calm 11.0 mph17.7 kmh 29.77 in1008.1 mb 0.22 in5.6 mm 0.12 in3.0 mm 0.26 in6.6 mm
03:00 PM 59.4°F15.2°C 57.7°F14.3°C 94% Calm Calm 11.0 mph17.7 kmh 29.77 in1008.1 mb 0.21 in5.3 mm 0.00 in0.0 mm 0.25 in6.4 mm
02:55 PM 59.4°F15.2°C 57.7°F14.3°C 94% Calm Calm 11.0 mph17.7 kmh 29.77 in1008.1 mb 0.21 in5.3 mm 0.00 in0.0 mm 0.25 in6.4 mm
02:50 PM 59.5°F15.3°C 57.8°F14.3°C 94% Calm Calm 11.0 mph17.7 kmh 29.77 in1008.1 mb 0.21 in5.3 mm 0.12 in3.0 mm 0.25 in6.4 mm
02:45 PM 59.3°F15.2°C 57.6°F14.2°C 94% 3.0 mph SSW4.8 kmh SSW 11.0 mph17.7 kmh 29.78 in1008.5 mb 0.20 in5.1 mm 0.12 in3.0 mm 0.24 in6.1 mm
02:40 PM 59.0°F15.0°C 57.6°F14.2°C 95% Calm Calm 11.0 mph17.7 kmh 29.78 in1008.5 mb 0.19 in4.8 mm 0.00 in0.0 mm 0.23 in5.8 mm
02:35 PM 58.9°F14.9°C 57.2°F14.0°C 94% 1.0 mph S1.6 kmh S 11.0 mph17.7 kmh 29.78 in1008.5 mb 0.19 in4.8 mm 0.12 in3.0 mm 0.23 in5.8 mm
02:30 PM 58.8°F14.9°C 57.1°F13.9°C 94% Calm Calm 11.0 mph17.7 kmh 29.77 in1008.1 mb 0.18 in4.6 mm 0.12 in3.0 mm 0.22 in5.6 mm
02:25 PM 58.7°F14.8°C 57.0°F13.9°C 94% 1.0 mph S1.6 kmh S 11.0 mph17.7 kmh 29.77 in1008.1 mb 0.17 in4.3 mm 0.12 in3.0 mm 0.21 in5.3 mm
02:20 PM 58.7°F14.8°C 57.0°F13.9°C 94% 5.0 mph WSW8.0 kmh WSW 11.0 mph17.7 kmh 29.77 in1008.1 mb 0.16 in4.1 mm 0.12 in3.0 mm 0.20 in5.1 mm
02:15 PM 58.7°F14.8°C 56.7°F13.7°C 93% Calm Calm 11.0 mph17.7 kmh 29.77 in1008.1 mb 0.15 in3.8 mm 0.12 in3.0 mm 0.19 in4.8 mm
02:10 PM 58.8°F14.9°C 56.8°F13.8°C 93% Calm Calm 11.0 mph17.7 kmh 29.77 in1008.1 mb 0.14 in3.6 mm 0.12 in3.0 mm 0.18 in4.6 mm
02:05 PM 59.0°F15.0°C 57.3°F14.1°C 94% Calm Calm 11.0 mph17.7 kmh 29.77 in1008.1 mb 0.13 in3.3 mm 0.12 in3.0 mm 0.17 in4.3 mm
02:00 PM 59.1°F15.1°C 57.4°F14.1°C 94% Calm Calm 11.0 mph17.7 kmh 29.77 in1008.1 mb 0.12 in3.0 mm 0.01 in0.3 mm 0.16 in4.1 mm
01:55 PM 59.2°F15.1°C 57.5°F14.2°C 94% Calm Calm 11.0 mph17.7 kmh 29.77 in1008.1 mb 0.11 in2.8 mm 0.12 in3.0 mm 0.15 in3.8 mm
01:50 PM 59.2°F15.1°C 57.5°F14.2°C 94% 1.0 mph S1.6 kmh S 11.0 mph17.7 kmh 29.77 in1008.1 mb 0.10 in2.5 mm 0.12 in3.0 mm 0.14 in3.6 mm
01:45 PM 59.3°F15.2°C 57.6°F14.2°C 94% Calm Calm 11.0 mph17.7 kmh 29.78 in1008.5 mb 0.09 in2.3 mm 0.12 in3.0 mm 0.13 in3.3 mm
01:40 PM 59.3°F15.2°C 57.3°F14.1°C 93% 2.0 mph SSW3.2 kmh SSW 11.0 mph17.7 kmh 29.78 in1008.5 mb 0.08 in2.0 mm 0.12 in3.0 mm 0.12 in3.0 mm
01:35 PM 59.4°F15.2°C 57.4°F14.1°C 93% Calm Calm 11.0 mph17.7 kmh 29.78 in1008.5 mb 0.07 in1.8 mm 0.12 in3.0 mm 0.11 in2.8 mm
01:30 PM 59.5°F15.3°C 57.5°F14.2°C 93% Calm Calm 11.0 mph17.7 kmh 29.78 in1008.5 mb 0.06 in1.5 mm 0.00 in0.0 mm 0.10 in2.5 mm
01:25 PM 59.6°F15.3°C 57.6°F14.2°C 93% Calm Calm 11.0 mph17.7 kmh 29.79 in1008.8 mb 0.06 in1.5 mm 0.00 in0.0 mm 0.10 in2.5 mm
01:20 PM 59.7°F15.4°C 57.7°F14.3°C 93% Calm Calm 11.0 mph17.7 kmh 29.79 in1008.8 mb 0.06 in1.5 mm 0.12 in3.0 mm 0.10 in2.5 mm
01:15 PM 59.8°F15.4°C 57.5°F14.2°C 92% 2.0 mph S3.2 kmh S 11.0 mph17.7 kmh 29.79 in1008.8 mb 0.05 in1.3 mm 0.00 in0.0 mm 0.09 in2.3 mm
01:10 PM 59.8°F15.4°C 57.5°F14.2°C 92% 1.0 mph SSW1.6 kmh SSW 11.0 mph17.7 kmh 29.79 in1008.8 mb 0.05 in1.3 mm 0.12 in3.0 mm 0.09 in2.3 mm
01:05 PM 59.9°F15.5°C 57.3°F14.1°C 91% Calm Calm 11.0 mph17.7 kmh 29.79 in1008.8 mb 0.04 in1.0 mm 0.00 in0.0 mm 0.08 in2.0 mm
01:00 PM 60.0°F15.6°C 57.4°F14.1°C 91% Calm Calm 11.0 mph17.7 kmh 29.79 in1008.8 mb 0.04 in1.0 mm 0.01 in0.3 mm 0.08 in2.0 mm
12:55 PM 60.2°F15.7°C 57.3°F14.1°C 90% Calm Calm 11.0 mph17.7 kmh 29.80 in1009.1 mb 0.03 in0.8 mm 0.00 in0.0 mm 0.07 in1.8 mm
12:50 PM 60.5°F15.8°C 57.5°F14.2°C 90% Calm Calm 11.0 mph17.7 kmh 29.80 in1009.1 mb 0.03 in0.8 mm 0.12 in3.0 mm 0.07 in1.8 mm
12:45 PM 60.8°F16.0°C 57.8°F14.3°C 90% Calm Calm 11.0 mph17.7 kmh 29.80 in1009.1 mb 0.02 in0.5 mm 0.00 in0.0 mm 0.06 in1.5 mm
12:40 PM 61.1°F16.2°C 57.8°F14.3°C 89% 4.0 mph SSW6.4 kmh SSW 11.0 mph17.7 kmh 29.81 in1009.5 mb 0.02 in0.5 mm 0.00 in0.0 mm 0.06 in1.5 mm
12:35 PM 61.3°F16.3°C 57.7°F14.3°C 88% Calm Calm 11.0 mph17.7 kmh 29.81 in1009.5 mb 0.02 in0.5 mm 0.12 in3.0 mm 0.06 in1.5 mm
12:30 PM 61.5°F16.4°C 57.9°F14.4°C 88% Calm Calm 11.0 mph17.7 kmh 29.81 in1009.5 mb 0.01 in0.3 mm 0.00 in0.0 mm 0.05 in1.3 mm
12:25 PM 61.7°F16.5°C 57.1°F13.9°C 85% 3.0 mph SW4.8 kmh SW 11.0 mph17.7 kmh 29.81 in1009.5 mb 0.01 in0.3 mm 0.00 in0.0 mm 0.05 in1.3 mm
12:20 PM 61.9°F16.6°C 57.3°F14.1°C 85% 1.0 mph S1.6 kmh S 11.0 mph17.7 kmh 29.82 in1009.8 mb 0.01 in0.3 mm 0.00 in0.0 mm 0.05 in1.3 mm
12:15 PM 62.0°F16.7°C 57.1°F13.9°C 84% Calm Calm 11.0 mph17.7 kmh 29.81 in1009.5 mb 0.01 in0.3 mm 0.00 in0.0 mm 0.05 in1.3 mm
12:10 PM 62.0°F16.7°C 56.8°F13.8°C 83% Calm Calm 11.0 mph17.7 kmh 29.81 in1009.5 mb 0.01 in0.3 mm 0.12 in3.0 mm 0.05 in1.3 mm
12:05 PM 62.2°F16.8°C 56.6°F13.7°C 82% Calm Calm 11.0 mph17.7 kmh 29.81 in1009.5 mb 0.00 in0.0 mm 0.00 in0.0 mm 0.04 in1.0 mm
12:00 PM 62.4°F16.9°C 56.5°F13.6°C 81% Calm Calm 11.0 mph17.7 kmh 29.82 in1009.8 mb 0.00 in0.0 mm 0.00 in0.0 mm 0.04 in1.0 mm
11:55 AM 62.5°F16.9°C 56.2°F13.4°C 80% 2.0 mph S3.2 kmh S 11.0 mph17.7 kmh 29.82 in1009.8 mb 0.00 in0.0 mm 0.00 in0.0 mm 0.04 in1.0 mm
11:50 AM 62.7°F17.1°C 56.4°F13.6°C 80% 1.0 mph SW1.6 kmh SW 11.0 mph17.7 kmh 29.82 in1009.8 mb 0.00 in0.0 mm 0.00 in0.0 mm 0.04 in1.0 mm
11:45 AM 62.8°F17.1°C 56.5°F13.6°C 80% 1.0 mph S1.6 kmh S 11.0 mph17.7 kmh 29.83 in1010.2 mb 0.00 in0.0 mm 0.00 in0.0 mm 0.04 in1.0 mm
11:40 AM 62.9°F17.2°C 55.9°F13.3°C 78% Calm Calm 11.0 mph17.7 kmh 29.83 in1010.2 mb 0.00 in0.0 mm 0.00 in0.0 mm 0.04 in1.0 mm
11:35 AM 63.0°F17.2°C 55.7°F13.2°C 77% 1.0 mph SSW1.6 kmh SSW 11.0 mph17.7 kmh 29.83 in1010.2 mb 0.00 in0.0 mm 0.00 in0.0 mm 0.04 in1.0 mm
11:30 AM 63.1°F17.3°C 55.8°F13.2°C 77% Calm Calm 11.0 mph17.7 kmh 29.83 in1010.2 mb 0.00 in0.0 mm 0.00 in0.0 mm 0.04 in1.0 mm
11:25 AM 63.3°F17.4°C 56.0°F13.3°C 77% 1.0 mph SSW1.6 kmh SSW 11.0 mph17.7 kmh 29.84 in1010.5 mb 0.00 in0.0 mm 0.00 in0.0 mm 0.04 in1.0 mm
11:20 AM 63.4°F17.4°C 55.7°F13.2°C 76% Calm Calm 11.0 mph17.7 kmh 29.84 in1010.5 mb 0.00 in0.0 mm 0.00 in0.0 mm 0.04 in1.0 mm
11:15 AM 63.5°F17.5°C 55.8°F13.2°C 76% Calm Calm 11.0 mph17.7 kmh 29.84 in1010.5 mb 0.00 in0.0 mm 0.00 in0.0 mm 0.04 in1.0 mm
11:10 AM 63.8°F17.7°C 56.1°F13.4°C 76% Calm Calm 11.0 mph17.7 kmh 29.84 in1010.5 mb 0.00 in0.0 mm 0.00 in0.0 mm 0.04 in1.0 mm
11:05 AM 64.0°F17.8°C 56.3°F13.5°C 76% Calm Calm 11.0 mph17.7 kmh 29.85 in1010.8 mb 0.00 in0.0 mm 0.00 in0.0 mm 0.04 in1.0 mm
11:00 AM 64.3°F17.9°C 56.6°F13.7°C 76% Calm Calm 11.0 mph17.7 kmh 29.85 in1010.8 mb 0.04 in1.0 mm 0.00 in0.0 mm 0.04 in1.0 mm
10:55 AM 64.7°F18.2°C 56.9°F13.8°C 76% Calm Calm 11.0 mph17.7 kmh 29.85 in1010.8 mb 0.04 in1.0 mm 0.00 in0.0 mm 0.04 in1.0 mm
10:50 AM 65.1°F18.4°C 57.7°F14.3°C 77% Calm Calm 11.0 mph17.7 kmh 29.85 in1010.8 mb 0.04 in1.0 mm 0.00 in0.0 mm 0.04 in1.0 mm
10:45 AM 65.2°F18.4°C 57.4°F14.1°C 76% 1.0 mph SSW1.6 kmh SSW 11.0 mph17.7 kmh 29.85 in1010.8 mb 0.04 in1.0 mm 0.00 in0.0 mm 0.04 in1.0 mm
10:40 AM 65.4°F18.6°C 57.2°F14.0°C 75% 1.0 mph S1.6 kmh S 11.0 mph17.7 kmh 29.85 in1010.8 mb 0.04 in1.0 mm 0.00 in0.0 mm 0.04 in1.0 mm
10:35 AM 65.5°F18.6°C 57.3°F14.1°C 75% 6.0 mph SSW9.7 kmh SSW 11.0 mph17.7 kmh 29.85 in1010.8 mb 0.04 in1.0 mm 0.00 in0.0 mm 0.04 in1.0 mm
10:25 AM 65.6°F18.7°C 56.7°F13.7°C 73% 2.0 mph SW3.2 kmh SW 11.0 mph17.7 kmh 29.85 in1010.8 mb 0.04 in1.0 mm 0.00 in0.0 mm 0.04 in1.0 mm
10:20 AM 65.6°F18.7°C 56.7°F13.7°C 73% Calm Calm 11.0 mph17.7 kmh 29.86 in1011.2 mb 0.04 in1.0 mm 0.00 in0.0 mm 0.04 in1.0 mm
10:15 AM 65.5°F18.6°C 56.6°F13.7°C 73% Calm Calm 11.0 mph17.7 kmh 29.85 in1010.8 mb 0.04 in1.0 mm 0.00 in0.0 mm 0.04 in1.0 mm
10:10 AM 65.5°F18.6°C 56.6°F13.7°C 73% 1.0 mph S1.6 kmh S 9.0 mph14.5 kmh 29.85 in1010.8 mb 0.04 in1.0 mm 0.00 in0.0 mm 0.04 in1.0 mm
10:05 AM 65.6°F18.7°C 57.1°F13.9°C 74% 1.0 mph S1.6 kmh S 9.0 mph14.5 kmh 29.85 in1010.8 mb 0.04 in1.0 mm 0.00 in0.0 mm 0.04 in1.0 mm
10:00 AM 65.6°F18.7°C 57.1°F13.9°C 74% 2.0 mph SSW3.2 kmh SSW 9.0 mph14.5 kmh 29.86 in1011.2 mb 0.04 in1.0 mm 0.00 in0.0 mm 0.04 in1.0 mm
09:55 AM 65.7°F18.7°C 57.2°F14.0°C 74% 7.0 mph SSW11.3 kmh SSW 9.0 mph14.5 kmh 29.86 in1011.2 mb 0.04 in1.0 mm 0.00 in0.0 mm 0.04 in1.0 mm
09:50 AM 65.6°F18.7°C 56.7°F13.7°C 73% 4.0 mph SSW6.4 kmh SSW 9.0 mph14.5 kmh 29.86 in1011.2 mb 0.04 in1.0 mm 0.00 in0.0 mm 0.04 in1.0 mm
09:45 AM 65.6°F18.7°C 57.1°F13.9°C 74% Calm Calm 9.0 mph14.5 kmh 29.86 in1011.2 mb 0.04 in1.0 mm 0.00 in0.0 mm 0.04 in1.0 mm
09:40 AM 65.6°F18.7°C 57.1°F13.9°C 74% 5.0 mph SW8.0 kmh SW 9.0 mph14.5 kmh 29.86 in1011.2 mb 0.04 in1.0 mm 0.00 in0.0 mm 0.04 in1.0 mm
09:35 AM 65.7°F18.7°C 57.2°F14.0°C 74% 2.0 mph SW3.2 kmh SW 9.0 mph14.5 kmh 29.86 in1011.2 mb 0.04 in1.0 mm 0.00 in0.0 mm 0.04 in1.0 mm
09:30 AM 65.6°F18.7°C 57.4°F14.1°C 75% Calm Calm 5.0 mph8.0 kmh 29.85 in1010.8 mb 0.04 in1.0 mm 0.06 in1.5 mm 0.04 in1.0 mm
06:50 AM 63.2°F17.3°C 54.4°F12.4°C 73% Calm Calm 5.0 mph8.0 kmh 29.87 in1011.5 mb 0.02 in0.5 mm 0.00 in0.0 mm 0.02 in0.5 mm
06:45 AM 63.5°F17.5°C 53.9°F12.2°C 71% Calm Calm 5.0 mph8.0 kmh 29.87 in1011.5 mb 0.02 in0.5 mm 0.00 in0.0 mm 0.02 in0.5 mm
06:40 AM 63.7°F17.6°C 54.1°F12.3°C 71% Calm Calm 5.0 mph8.0 kmh 29.87 in1011.5 mb 0.02 in0.5 mm 0.00 in0.0 mm 0.02 in0.5 mm
06:35 AM 64.1°F17.8°C 54.1°F12.3°C 70% Calm Calm 5.0 mph8.0 kmh 29.87 in1011.5 mb 0.02 in0.5 mm 0.00 in0.0 mm 0.02 in0.5 mm
06:30 AM 64.4°F18.0°C 53.6°F12.0°C 68% Calm Calm 5.0 mph8.0 kmh 29.87 in1011.5 mb 0.02 in0.5 mm 0.00 in0.0 mm 0.02 in0.5 mm
06:25 AM 64.7°F18.2°C 53.9°F12.2°C 68% Calm Calm 5.0 mph8.0 kmh 29.86 in1011.2 mb 0.02 in0.5 mm 0.00 in0.0 mm 0.02 in0.5 mm
06:20 AM 64.7°F18.2°C 53.9°F12.2°C 68% Calm Calm 5.0 mph8.0 kmh 29.86 in1011.2 mb 0.02 in0.5 mm 0.00 in0.0 mm 0.02 in0.5 mm
06:15 AM 64.7°F18.2°C 53.9°F12.2°C 68% 3.0 mph SSW4.8 kmh SSW 5.0 mph8.0 kmh 29.86 in1011.2 mb 0.02 in0.5 mm 0.00 in0.0 mm 0.02 in0.5 mm
06:10 AM 64.5°F18.1°C 53.7°F12.1°C 68% Calm Calm 5.0 mph8.0 kmh 29.86 in1011.2 mb 0.02 in0.5 mm 0.00 in0.0 mm 0.02 in0.5 mm
06:05 AM 64.3°F17.9°C 53.5°F11.9°C 68% Calm Calm 4.0 mph6.4 kmh 29.86 in1011.2 mb 0.02 in0.5 mm 0.00 in0.0 mm 0.02 in0.5 mm
06:00 AM 64.2°F17.9°C 53.8°F12.1°C 69% Calm Calm 4.0 mph6.4 kmh 29.86 in1011.2 mb 0.02 in0.5 mm 0.00 in0.0 mm 0.02 in0.5 mm
05:55 AM 64.1°F17.8°C 53.7°F12.1°C 69% Calm Calm 4.0 mph6.4 kmh 29.86 in1011.2 mb 0.02 in0.5 mm 0.00 in0.0 mm 0.02 in0.5 mm
05:50 AM 64.1°F17.8°C 53.7°F12.1°C 69% Calm Calm 4.0 mph6.4 kmh 29.86 in1011.2 mb 0.02 in0.5 mm 0.00 in0.0 mm 0.02 in0.5 mm
05:45 AM 64.2°F17.9°C 53.8°F12.1°C 69% 2.0 mph SW3.2 kmh SW 4.0 mph6.4 kmh 29.86 in1011.2 mb 0.02 in0.5 mm 0.00 in0.0 mm 0.02 in0.5 mm
05:40 AM 64.3°F17.9°C 53.5°F11.9°C 68% Calm Calm 4.0 mph6.4 kmh 29.86 in1011.2 mb 0.02 in0.5 mm 0.00 in0.0 mm 0.02 in0.5 mm
05:35 AM 64.5°F18.1°C 53.7°F12.1°C 68% Calm Calm 4.0 mph6.4 kmh 29.86 in1011.2 mb 0.02 in0.5 mm 0.00 in0.0 mm 0.02 in0.5 mm
05:30 AM 64.6°F18.1°C 53.8°F12.1°C 68% Calm Calm 4.0 mph6.4 kmh 29.86 in1011.2 mb 0.02 in0.5 mm 0.00 in0.0 mm 0.02 in0.5 mm
05:25 AM 64.8°F18.2°C 54.0°F12.2°C 68% 1.0 mph SSW1.6 kmh SSW 4.0 mph6.4 kmh 29.86 in1011.2 mb 0.02 in0.5 mm 0.00 in0.0 mm 0.02 in0.5 mm
05:20 AM 64.9°F18.3°C 53.7°F12.1°C 67% Calm Calm 4.0 mph6.4 kmh 29.86 in1011.2 mb 0.02 in0.5 mm 0.00 in0.0 mm 0.02 in0.5 mm
05:15 AM 64.7°F18.2°C 53.5°F11.9°C 67% Calm Calm 4.0 mph6.4 kmh 29.86 in1011.2 mb 0.02 in0.5 mm 0.00 in0.0 mm 0.02 in0.5 mm
05:10 AM 64.5°F18.1°C 53.7°F12.1°C 68% Calm Calm 3.0 mph4.8 kmh 29.86 in1011.2 mb 0.02 in0.5 mm 0.00 in0.0 mm 0.02 in0.5 mm
05:05 AM 64.2°F17.9°C 53.4°F11.9°C 68% Calm Calm 3.0 mph4.8 kmh 29.86 in1011.2 mb 0.02 in0.5 mm 0.00 in0.0 mm 0.02 in0.5 mm
05:00 AM 63.9°F17.7°C 53.1°F11.7°C 68% Calm Calm 3.0 mph4.8 kmh 29.85 in1010.8 mb 0.02 in0.5 mm 0.00 in0.0 mm 0.02 in0.5 mm
04:55 AM 63.8°F17.7°C 53.4°F11.9°C 69% Calm Calm 3.0 mph4.8 kmh 29.85 in1010.8 mb 0.02 in0.5 mm 0.00 in0.0 mm 0.02 in0.5 mm
04:50 AM 63.6°F17.6°C 52.4°F11.3°C 67% Calm Calm 3.0 mph4.8 kmh 29.85 in1010.8 mb 0.02 in0.5 mm 0.00 in0.0 mm 0.02 in0.5 mm
04:45 AM 63.4°F17.4°C 51.8°F11.0°C 66% Calm Calm 3.0 mph4.8 kmh 29.85 in1010.8 mb 0.02 in0.5 mm 0.00 in0.0 mm 0.02 in0.5 mm
04:40 AM 63.1°F17.3°C 51.5°F10.8°C 66% 1.0 mph SSW1.6 kmh SSW 3.0 mph4.8 kmh 29.84 in1010.5 mb 0.02 in0.5 mm 0.00 in0.0 mm 0.02 in0.5 mm
04:35 AM 62.7°F17.1°C 51.6°F10.9°C 67% 3.0 mph SW4.8 kmh SW 3.0 mph4.8 kmh 29.84 in1010.5 mb 0.02 in0.5 mm 0.00 in0.0 mm 0.02 in0.5 mm
04:30 AM 62.3°F16.8°C 52.0°F11.1°C 69% Calm Calm 2.0 mph3.2 kmh 29.85 in1010.8 mb 0.02 in0.5 mm 0.00 in0.0 mm 0.02 in0.5 mm
04:25 AM 61.9°F16.6°C 51.6°F10.9°C 69% Calm Calm 2.0 mph3.2 kmh 29.85 in1010.8 mb 0.02 in0.5 mm 0.00 in0.0 mm 0.02 in0.5 mm
04:20 AM 61.6°F16.4°C 51.7°F10.9°C 70% Calm Calm 2.0 mph3.2 kmh 29.85 in1010.8 mb 0.02 in0.5 mm 0.00 in0.0 mm 0.02 in0.5 mm
04:15 AM 61.4°F16.3°C 51.9°F11.1°C 71% Calm Calm 2.0 mph3.2 kmh 29.84 in1010.5 mb 0.02 in0.5 mm 0.00 in0.0 mm 0.02 in0.5 mm
04:10 AM 61.1°F16.2°C 52.0°F11.1°C 72% Calm Calm 2.0 mph3.2 kmh 29.84 in1010.5 mb 0.02 in0.5 mm 0.00 in0.0 mm 0.02 in0.5 mm
04:05 AM 60.9°F16.1°C 51.8°F11.0°C 72% Calm Calm 2.0 mph3.2 kmh 29.84 in1010.5 mb 0.02 in0.5 mm 0.00 in0.0 mm 0.02 in0.5 mm
04:00 AM 60.5°F15.8°C 52.2°F11.2°C 74% Calm Calm 2.0 mph3.2 kmh 29.84 in1010.5 mb 0.02 in0.5 mm 0.00 in0.0 mm 0.02 in0.5 mm
03:55 AM 60.4°F15.8°C 51.7°F10.9°C 73% Calm Calm 2.0 mph3.2 kmh 29.83 in1010.2 mb 0.02 in0.5 mm 0.00 in0.0 mm 0.02 in0.5 mm
03:50 AM 60.5°F15.8°C 52.2°F11.2°C 74% Calm Calm 2.0 mph3.2 kmh 29.84 in1010.5 mb 0.02 in0.5 mm 0.00 in0.0 mm 0.02 in0.5 mm
03:45 AM 60.6°F15.9°C 52.6°F11.4°C 75% Calm Calm 2.0 mph3.2 kmh 29.83 in1010.2 mb 0.02 in0.5 mm 0.00 in0.0 mm 0.02 in0.5 mm
03:40 AM 60.7°F15.9°C 53.1°F11.7°C 76% Calm Calm 2.0 mph3.2 kmh 29.83 in1010.2 mb 0.02 in0.5 mm 0.12 in3.0 mm 0.02 in0.5 mm
03:35 AM 60.7°F15.9°C 53.1°F11.7°C 76% Calm Calm 2.0 mph3.2 kmh 29.83 in1010.2 mb 0.01 in0.3 mm 0.00 in0.0 mm 0.01 in0.3 mm
03:30 AM 60.9°F16.1°C 52.5°F11.4°C 74% Calm Calm 2.0 mph3.2 kmh 29.83 in1010.2 mb 0.01 in0.3 mm 0.00 in0.0 mm 0.01 in0.3 mm
03:25 AM 61.1°F16.2°C 52.7°F11.5°C 74% Calm Calm 2.0 mph3.2 kmh 29.83 in1010.2 mb 0.01 in0.3 mm 0.12 in3.0 mm 0.01 in0.3 mm
03:20 AM 61.3°F16.3°C 52.6°F11.4°C 73% Calm Calm 2.0 mph3.2 kmh 29.83 in1010.2 mb 0.00 in0.0 mm 0.00 in0.0 mm 0.00 in0.0 mm
03:15 AM 61.5°F16.4°C 52.0°F11.1°C 71% Calm Calm 2.0 mph3.2 kmh 29.83 in1010.2 mb 0.00 in0.0 mm 0.00 in0.0 mm 0.00 in0.0 mm
03:10 AM 61.5°F16.4°C 52.4°F11.3°C 72% Calm Calm 2.0 mph3.2 kmh 29.83 in1010.2 mb 0.00 in0.0 mm 0.00 in0.0 mm 0.00 in0.0 mm
03:05 AM 61.7°F16.5°C 52.6°F11.4°C 72% Calm Calm 1.0 mph1.6 kmh 29.83 in1010.2 mb 0.00 in0.0 mm 0.00 in0.0 mm 0.00 in0.0 mm
03:00 AM 61.7°F16.5°C 52.2°F11.2°C 71% Calm Calm 1.0 mph1.6 kmh 29.83 in1010.2 mb 0.00 in0.0 mm 0.00 in0.0 mm 0.00 in0.0 mm
02:55 AM 61.6°F16.4°C 52.1°F11.2°C 71% Calm Calm 1.0 mph1.6 kmh 29.84 in1010.5 mb 0.00 in0.0 mm 0.00 in0.0 mm 0.00 in0.0 mm
02:50 AM 61.6°F16.4°C 52.5°F11.4°C 72% Calm Calm 1.0 mph1.6 kmh 29.84 in1010.5 mb 0.00 in0.0 mm 0.00 in0.0 mm 0.00 in0.0 mm
02:45 AM 61.5°F16.4°C 52.4°F11.3°C 72% Calm Calm 1.0 mph1.6 kmh 29.84 in1010.5 mb 0.00 in0.0 mm 0.00 in0.0 mm 0.00 in0.0 mm
02:40 AM 61.6°F16.4°C 52.5°F11.4°C 72% Calm Calm 1.0 mph1.6 kmh 29.85 in1010.8 mb 0.00 in0.0 mm 0.00 in0.0 mm 0.00 in0.0 mm
02:35 AM 61.6°F16.4°C 52.5°F11.4°C 72% Calm Calm 1.0 mph1.6 kmh 29.85 in1010.8 mb 0.00 in0.0 mm 0.00 in0.0 mm 0.00 in0.0 mm
02:30 AM 61.8°F16.6°C 52.7°F11.5°C 72% Calm Calm 1.0 mph1.6 kmh 29.85 in1010.8 mb 0.00 in0.0 mm 0.00 in0.0 mm 0.00 in0.0 mm
02:25 AM 61.9°F16.6°C 52.4°F11.3°C 71% Calm Calm 1.0 mph1.6 kmh 29.85 in1010.8 mb 0.00 in0.0 mm 0.00 in0.0 mm 0.00 in0.0 mm
02:20 AM 62.0°F16.7°C 52.1°F11.2°C 70% Calm Calm 1.0 mph1.6 kmh 29.85 in1010.8 mb 0.00 in0.0 mm 0.00 in0.0 mm 0.00 in0.0 mm
02:15 AM 62.2°F16.8°C 52.3°F11.3°C 70% Calm Calm 1.0 mph1.6 kmh 29.85 in1010.8 mb 0.00 in0.0 mm 0.00 in0.0 mm 0.00 in0.0 mm
02:10 AM 62.3°F16.8°C 52.0°F11.1°C 69% Calm Calm 1.0 mph1.6 kmh 29.85 in1010.8 mb 0.00 in0.0 mm 0.00 in0.0 mm 0.00 in0.0 mm
02:05 AM 62.4°F16.9°C 51.7°F10.9°C 68% Calm Calm 1.0 mph1.6 kmh 29.85 in1010.8 mb 0.00 in0.0 mm 0.00 in0.0 mm 0.00 in0.0 mm
02:00 AM 62.4°F16.9°C 51.7°F10.9°C 68% Calm Calm 1.0 mph1.6 kmh 29.86 in1011.2 mb 0.00 in0.0 mm 0.00 in0.0 mm 0.00 in0.0 mm
01:55 AM 62.4°F16.9°C 51.7°F10.9°C 68% Calm Calm -- 29.86 in1011.2 mb 0.00 in0.0 mm 0.00 in0.0 mm 0.00 in0.0 mm
01:50 AM 62.4°F16.9°C 51.7°F10.9°C 68% Calm Calm -- 29.86 in1011.2 mb 0.00 in0.0 mm 0.00 in0.0 mm 0.00 in0.0 mm
01:45 AM 62.3°F16.8°C 51.6°F10.9°C 68% Calm Calm -- 29.87 in1011.5 mb 0.00 in0.0 mm 0.00 in0.0 mm 0.00 in0.0 mm
01:40 AM 62.2°F16.8°C 51.5°F10.8°C 68% Calm Calm -- 29.87 in1011.5 mb 0.00 in0.0 mm 0.00 in0.0 mm 0.00 in0.0 mm
01:35 AM 62.2°F16.8°C 51.9°F11.1°C 69% Calm Calm -- 29.87 in1011.5 mb 0.00 in0.0 mm 0.00 in0.0 mm 0.00 in0.0 mm
01:30 AM 62.2°F16.8°C 51.9°F11.1°C 69% Calm Calm -- 29.87 in1011.5 mb 0.00 in0.0 mm 0.00 in0.0 mm 0.00 in0.0 mm
01:25 AM 62.2°F16.8°C 51.9°F11.1°C 69% Calm Calm -- 29.87 in1011.5 mb 0.00 in0.0 mm 0.00 in0.0 mm 0.00 in0.0 mm
01:20 AM 62.2°F16.8°C 51.9°F11.1°C 69% Calm Calm -- 29.87 in1011.5 mb 0.00 in0.0 mm 0.00 in0.0 mm 0.00 in0.0 mm
01:15 AM 62.2°F16.8°C 51.9°F11.1°C 69% Calm Calm -- 29.88 in1011.9 mb 0.00 in0.0 mm 0.00 in0.0 mm 0.00 in0.0 mm
01:10 AM 62.2°F16.8°C 51.9°F11.1°C 69% Calm Calm -- 29.88 in1011.9 mb 0.00 in0.0 mm 0.00 in0.0 mm 0.00 in0.0 mm
01:05 AM 62.2°F16.8°C 51.5°F10.8°C 68% Calm Calm -- 29.88 in1011.9 mb 0.00 in0.0 mm 0.00 in0.0 mm 0.00 in0.0 mm
01:00 AM 62.2°F16.8°C 51.5°F10.8°C 68% Calm Calm -- 29.89 in1012.2 mb 0.00 in0.0 mm 0.00 in0.0 mm 0.00 in0.0 mm
12:55 AM 62.2°F16.8°C 51.5°F10.8°C 68% Calm Calm -- 29.88 in1011.9 mb 0.00 in0.0 mm 0.00 in0.0 mm 0.00 in0.0 mm
12:50 AM 62.2°F16.8°C 51.9°F11.1°C 69% Calm Calm -- 29.89 in1012.2 mb 0.00 in0.0 mm 0.00 in0.0 mm 0.00 in0.0 mm
12:45 AM 62.2°F16.8°C 51.9°F11.1°C 69% Calm Calm -- 29.88 in1011.9 mb 0.00 in0.0 mm 0.00 in0.0 mm 0.00 in0.0 mm
12:40 AM 62.2°F16.8°C 51.9°F11.1°C 69% Calm Calm -- 29.89 in1012.2 mb 0.00 in0.0 mm 0.00 in0.0 mm 0.00 in0.0 mm
12:35 AM 62.1°F16.7°C 51.8°F11.0°C 69% Calm Calm -- 29.90 in1012.5 mb 0.00 in0.0 mm 0.00 in0.0 mm 0.00 in0.0 mm
12:30 AM 62.0°F16.7°C 52.1°F11.2°C 70% Calm Calm -- 29.90 in1012.5 mb 0.00 in0.0 mm 0.00 in0.0 mm 0.00 in0.0 mm
12:25 AM 62.0°F16.7°C 51.7°F10.9°C 69% Calm Calm -- 29.89 in1012.2 mb 0.00 in0.0 mm 0.00 in0.0 mm 0.00 in0.0 mm
12:20 AM 62.0°F16.7°C 52.1°F11.2°C 70% Calm Calm -- 29.89 in1012.2 mb 0.00 in0.0 mm 0.00 in0.0 mm 0.00 in0.0 mm
12:15 AM 62.0°F16.7°C 52.1°F11.2°C 70% Calm Calm -- 29.89 in1012.2 mb 0.00 in0.0 mm 0.00 in0.0 mm 0.00 in0.0 mm
12:10 AM 62.1°F16.7°C 52.2°F11.2°C 70% Calm Calm -- 29.90 in1012.5 mb 0.00 in0.0 mm 0.00 in0.0 mm 0.00 in0.0 mm
12:05 AM 62.1°F16.7°C 52.2°F11.2°C 70% Calm Calm -- 29.90 in1012.5 mb 0.00 in0.0 mm 0.00 in0.0 mm 0.00 in0.0 mm
12:00 AM 62.2°F16.8°C 51.9°F11.1°C 69% Calm Calm -- 29.90 in1012.5 mb 0.00 in0.0 mm 0.00 in0.0 mm 0.00 in0.0 mm